Portada
METAR-TAF:

METAR-TAF

Aeropuertos :

Aeropuerto Internacional Eleftherios Venizelos

Atenas, Grecia

latitud: 37-56N, longitud: 023-56E, altitud: 94 m

Observación

El informe se hizo hace 22 minutos, a las 20:50 UTC
Viento 17 kt del noreste
Temperatura 14°C
Humedad 67%
Presión 1025 hPa
Visibilidad 10 km o más
Nubes dispersas a una altura de 3000 ft

METAR: LGAV 132050Z 04017KT 9999 SCT030 14/08 Q1025 NOSIG

Hora: 23:12 (21:12 UTC)

Pronóstico

El informe se hizo hace 4 horas y 12 minutos, a las 17:00 UTC
Pronóstico válido del 13 a las 18 UTC al 14 a las 18 UTC
Viento 22 kt del norte-noreste
Visibilidad 10 km o más
Nubes dispersas a una altura de 3000 ft
Temporalmente
del 13 a las 18 UTC al 14 a las 06 UTC
Viento 22 kt del norte-noreste con ráfagas de 32 kt

TAF: LGAV 131700Z 1318/1418 02022KT 9999 SCT030 TEMPO 1318/1406 02022G32KT

Observaciones y pronósticos meteorológicos de más de 4000 aeropuertos (mensajes METAR y TAF).

Los puntos amarillos y rojos representan las estaciones disponibles.

Ponga el ratón en el punto deseado para ver el nombre de la estación.

Haga clic para ver las observaciones y los pronósticos meteorológicos.

Para cambiar el mapa : haga clic en los botones verdes con una cruz de color negro para hacer un zoom, en el botón verde con un guión para alejar o en las flechas verdes para mapas adyacentes.


METAR-TAF: